Time;durP1;ratioP1;P1;durP2;ratioP2;P2;SDS_P1;SDS_P2;PMS_P1;PMS_P2;Temp;Humidity;BMP_temperature;BMP_pressure;BME280_temperature;BME280_humidity;BME280_pressure;Samples;Min_cycle;Max_cycle;Signal;HPM_P1;HPM_P2
2023/01/06 00:00:18;;;;;;;;;;;18.60;99.90;;;;;;5070844;28;20012;-75
2023/01/06 00:02:46;;;;;;;;;;;18.60;99.90;;;;;;5059622;28;20356;-75
2023/01/06 00:05:13;;;;;;;;;;;18.70;99.90;;;;;;5070003;28;20348;-76
2023/01/06 00:07:40;;;;;;;;;;;18.90;99.90;;;;;;5068767;28;19912;-75
2023/01/06 00:10:07;;;;;;;;;;;19.00;99.90;;;;;;5065296;28;19963;-74
2023/01/06 00:12:34;;;;;;;;;;;19.00;99.90;;;;;;5067078;28;19917;-71
2023/01/06 00:15:00;;;;;;;;;;;19.10;99.90;;;;;;5070675;28;20306;-75
2023/01/06 00:17:27;;;;;;;;;;;19.00;99.90;;;;;;5070151;28;19956;-71
2023/01/06 00:19:54;;;;;;;;;;;18.80;99.90;;;;;;5068981;28;20386;-74
2023/01/06 00:22:21;;;;;;;;;;;18.90;99.90;;;;;;5071645;28;19928;-73
2023/01/06 00:24:47;;;;;;;;;;;18.80;99.90;;;;;;5071714;28;20348;-75
2023/01/06 00:27:14;;;;;;;;;;;18.80;99.90;;;;;;5073151;28;19913;-70
2023/01/06 00:29:41;;;;;;;;;;;19.00;99.90;;;;;;5073235;28;19972;-72
2023/01/06 00:32:07;;;;;;;;;;;19.10;99.90;;;;;;5071864;28;19988;-72
2023/01/06 00:34:34;;;;;;;;;;;19.00;99.90;;;;;;5072904;28;19916;-70
2023/01/06 00:37:01;;;;;;;;;;;19.00;99.90;;;;;;5063585;28;19940;-73
2023/01/06 00:39:27;;;;;;;;;;;18.90;99.90;;;;;;5069077;28;19935;-72
2023/01/06 00:42:03;;;;;;;;;;;18.90;99.90;;;;;;5070657;28;19920;-70
2023/01/06 00:44:34;;;;;;;;;;;19.00;99.90;;;;;;5068153;28;19917;-74
2023/01/06 00:47:02;;;;;;;;;;;19.00;99.90;;;;;;5075948;28;19959;-71
2023/01/06 00:49:28;;;;;;;;;;;19.10;99.90;;;;;;5069802;28;19908;-69
2023/01/06 00:51:55;;;;;;;;;;;19.20;99.90;;;;;;5068588;28;19912;-75
2023/01/06 00:54:22;;;;;;;;;;;19.20;99.90;;;;;;5065069;28;19916;-76
2023/01/06 00:56:50;;;;;;;;;;;19.10;99.90;;;;;;5071387;28;19916;-82
2023/01/06 00:59:18;;;;;;;;;;;19.00;99.90;;;;;;5070701;28;19916;-77
2023/01/06 01:01:45;;;;;;;;;;;19.00;99.90;;;;;;5067914;28;19920;-83
2023/01/06 01:04:12;;;;;;;;;;;19.10;99.90;;;;;;5071061;28;19963;-84
2023/01/06 01:06:40;;;;;;;;;;;19.10;99.90;;;;;;5068288;28;19976;-70
2023/01/06 01:09:07;;;;;;;;;;;19.20;99.90;;;;;;5070008;28;20499;-81
2023/01/06 01:14:19;;;;;;;;;;;19.30;99.90;;;;;;5068825;28;19961;-74
2023/01/06 01:16:46;;;;;;;;;;;19.30;99.90;;;;;;5077537;28;19908;-84
2023/01/06 01:19:13;;;;;;;;;;;19.20;99.90;;;;;;5072267;28;19913;-78
2023/01/06 01:21:40;;;;;;;;;;;19.20;99.90;;;;;;5071280;28;20401;-81
2023/01/06 01:24:06;;;;;;;;;;;19.20;99.90;;;;;;5072017;28;19916;-82
2023/01/06 01:26:33;;;;;;;;;;;19.20;99.90;;;;;;5071216;28;19951;-82
2023/01/06 01:29:00;;;;;;;;;;;19.30;99.90;;;;;;5071905;28;20065;-80
2023/01/06 01:31:27;;;;;;;;;;;19.40;99.90;;;;;;5072316;28;19936;-82
2023/01/06 01:33:53;;;;;;;;;;;19.50;99.90;;;;;;5070065;28;19913;-78
2023/01/06 01:36:20;;;;;;;;;;;19.50;99.90;;;;;;5075326;28;19917;-78
2023/01/06 01:38:47;;;;;;;;;;;19.60;99.90;;;;;;5069511;28;19920;-79
2023/01/06 01:41:15;;;;;;;;;;;19.70;99.90;;;;;;5071356;28;20382;-79
2023/01/06 01:43:46;;;;;;;;;;;19.90;99.90;;;;;;5070312;28;19921;-83
2023/01/06 01:46:16;;;;;;;;;;;20.00;99.90;;;;;;5068411;28;19940;-78
2023/01/06 01:48:43;;;;;;;;;;;20.00;99.90;;;;;;5068503;28;19991;-70
2023/01/06 01:51:12;;;;;;;;;;;20.00;99.90;;;;;;5073591;28;19916;-71
2023/01/06 01:53:44;;;;;;;;;;;19.90;99.90;;;;;;5073812;28;20397;-82
2023/01/06 01:56:13;;;;;;;;;;;19.80;99.90;;;;;;5074163;28;19987;-81
2023/01/06 01:58:42;;;;;;;;;;;19.90;99.90;;;;;;5073548;28;19912;-83
2023/01/06 02:01:10;;;;;;;;;;;19.90;99.90;;;;;;5071659;28;20007;-78
2023/01/06 02:03:37;;;;;;;;;;;19.90;99.90;;;;;;5078844;28;19951;-76
2023/01/06 02:06:05;;;;;;;;;;;19.90;99.90;;;;;;5082274;28;19955;-80
2023/01/06 02:08:35;;;;;;;;;;;19.90;99.90;;;;;;5076097;28;20057;-80
2023/01/06 02:11:03;;;;;;;;;;;19.80;99.90;;;;;;5070038;28;19920;-83
2023/01/06 02:13:31;;;;;;;;;;;19.70;99.90;;;;;;5081677;28;19913;-81
2023/01/06 02:16:03;;;;;;;;;;;19.80;99.90;;;;;;5071821;28;19916;-80
2023/01/06 02:18:36;;;;;;;;;;;19.90;99.90;;;;;;5065380;28;20015;-82
2023/01/06 02:21:09;;;;;;;;;;;20.20;99.90;;;;;;5065987;28;19916;-78
2023/01/06 02:23:36;;;;;;;;;;;20.40;99.90;;;;;;5068594;28;19913;-80
2023/01/06 02:26:14;;;;;;;;;;;20.50;99.90;;;;;;5072225;28;20010;-78
2023/01/06 02:29:04;;;;;;;;;;;20.60;99.90;;;;;;5069824;28;19924;-78
2023/01/06 02:31:34;;;;;;;;;;;20.50;99.90;;;;;;5069270;28;19913;-79
2023/01/06 02:34:06;;;;;;;;;;;20.60;99.90;;;;;;5066280;28;20347;-81
2023/01/06 02:36:33;;;;;;;;;;;20.60;99.90;;;;;;5069379;28;20353;-80
2023/01/06 02:39:12;;;;;;;;;;;20.70;99.90;;;;;;5066646;28;19956;-79
2023/01/06 02:41:39;;;;;;;;;;;20.70;99.90;;;;;;5071384;28;19925;-78
2023/01/06 02:44:05;;;;;;;;;;;20.70;99.90;;;;;;5068803;28;19920;-80
2023/01/06 02:46:35;;;;;;;;;;;20.80;99.90;;;;;;5071221;28;19916;-79
2023/01/06 02:49:11;;;;;;;;;;;20.80;99.90;;;;;;5066622;28;19922;-76
2023/01/06 02:51:44;;;;;;;;;;;20.90;99.90;;;;;;5068364;28;19958;-81
2023/01/06 02:54:16;;;;;;;;;;;21.20;99.90;;;;;;5070714;28;19956;-79
2023/01/06 02:56:47;;;;;;;;;;;21.30;99.90;;;;;;5071279;28;19954;-76
2023/01/06 02:59:18;;;;;;;;;;;21.40;99.90;;;;;;5067910;28;19912;-76
2023/01/06 03:01:47;;;;;;;;;;;21.60;99.90;;;;;;5066527;28;19929;-78
2023/01/06 03:04:16;;;;;;;;;;;21.60;99.90;;;;;;5069058;28;19974;-75
2023/01/06 03:06:45;;;;;;;;;;;21.50;99.90;;;;;;5061999;28;19912;-79
2023/01/06 03:09:15;;;;;;;;;;;21.40;99.90;;;;;;5068438;28;19916;-78
2023/01/06 03:11:43;;;;;;;;;;;21.40;99.90;;;;;;5068376;28;19916;-80
2023/01/06 03:14:10;;;;;;;;;;;21.30;99.90;;;;;;5067837;28;19913;-74
2023/01/06 03:16:36;;;;;;;;;;;21.30;99.90;;;;;;5066181;28;20432;-78
2023/01/06 03:19:03;;;;;;;;;;;21.30;99.90;;;;;;5060096;28;21334;-78
2023/01/06 03:21:32;;;;;;;;;;;21.20;99.90;;;;;;5063747;28;19920;-72
2023/01/06 03:23:58;;;;;;;;;;;21.10;99.90;;;;;;5065402;28;19916;-76
2023/01/06 03:26:25;;;;;;;;;;;20.90;99.90;;;;;;5068925;28;19913;-76
2023/01/06 03:28:52;;;;;;;;;;;20.80;99.90;;;;;;5066455;28;19923;-74
2023/01/06 03:31:27;;;;;;;;;;;20.70;99.90;;;;;;5069391;28;19936;-75
2023/01/06 03:33:59;;;;;;;;;;;20.60;99.90;;;;;;5068519;28;19913;-75
2023/01/06 03:36:29;;;;;;;;;;;20.40;99.90;;;;;;5071236;28;20313;-80
2023/01/06 03:39:13;;;;;;;;;;;20.40;99.90;;;;;;5067235;28;20011;-76
2023/01/06 03:44:55;;;;;;;;;;;20.60;99.90;;;;;;5068887;28;20643;-70
2023/01/06 03:47:37;;;;;;;;;;;20.60;99.90;;;;;;5066520;28;19921;-74
2023/01/06 03:50:14;;;;;;;;;;;20.60;99.90;;;;;;5066743;28;19919;-75
2023/01/06 03:52:55;;;;;;;;;;;20.80;99.90;;;;;;5063639;28;19912;-72
2023/01/06 03:55:24;;;;;;;;;;;21.00;99.90;;;;;;5069992;28;20003;-73
2023/01/06 03:57:55;;;;;;;;;;;21.00;99.90;;;;;;5071944;28;19920;-74
2023/01/06 04:00:27;;;;;;;;;;;20.90;99.90;;;;;;5073651;28;20500;-75
2023/01/06 04:02:54;;;;;;;;;;;20.80;99.90;;;;;;5075442;28;20514;-75
2023/01/06 04:05:22;;;;;;;;;;;20.80;99.90;;;;;;5076540;28;20582;-74
2023/01/06 04:07:49;;;;;;;;;;;20.80;99.90;;;;;;5072770;28;19997;-77
2023/01/06 04:10:17;;;;;;;;;;;20.70;99.90;;;;;;5074789;28;20255;-78
2023/01/06 04:12:43;;;;;;;;;;;20.60;99.90;;;;;;5071295;28;19927;-70
2023/01/06 04:15:12;;;;;;;;;;;20.30;99.90;;;;;;5074417;28;20004;-74
2023/01/06 04:17:39;;;;;;;;;;;20.10;99.90;;;;;;5071810;28;19913;-71
2023/01/06 04:20:07;;;;;;;;;;;20.10;99.90;;;;;;5071965;28;20003;-80
2023/01/06 04:22:34;;;;;;;;;;;20.10;99.90;;;;;;5068379;28;19920;-80
2023/01/06 04:25:00;;;;;;;;;;;20.10;99.90;;;;;;5068673;28;19920;-78
2023/01/06 04:27:27;;;;;;;;;;;20.00;99.90;;;;;;5063267;28;19917;-75
2023/01/06 04:29:54;;;;;;;;;;;20.00;99.90;;;;;;5061756;28;19997;-76
2023/01/06 04:32:20;;;;;;;;;;;19.90;99.90;;;;;;5063994;28;19912;-76
2023/01/06 04:34:47;;;;;;;;;;;19.90;99.90;;;;;;5062501;28;19916;-75
2023/01/06 04:37:14;;;;;;;;;;;19.90;99.90;;;;;;5071993;28;19919;-74
2023/01/06 04:39:40;;;;;;;;;;;19.80;99.90;;;;;;5069240;28;19928;-76
2023/01/06 04:42:07;;;;;;;;;;;19.80;99.90;;;;;;5068286;28;19943;-77
2023/01/06 04:44:34;;;;;;;;;;;19.70;99.90;;;;;;5071783;28;20327;-72
2023/01/06 04:47:00;;;;;;;;;;;19.60;99.90;;;;;;5065422;28;19916;-78
2023/01/06 04:49:27;;;;;;;;;;;19.60;99.90;;;;;;5070024;28;19956;-73
2023/01/06 04:51:54;;;;;;;;;;;19.60;99.90;;;;;;5071151;28;19958;-72
2023/01/06 04:54:21;;;;;;;;;;;19.70;99.90;;;;;;5067171;28;19913;-78
2023/01/06 04:56:47;;;;;;;;;;;19.60;99.90;;;;;;5068409;28;19916;-77
2023/01/06 04:59:14;;;;;;;;;;;19.50;99.90;;;;;;5069992;28;20309;-79
2023/01/06 05:01:41;;;;;;;;;;;19.40;99.90;;;;;;5070655;28;19927;-76
2023/01/06 05:04:07;;;;;;;;;;;19.40;99.90;;;;;;5071229;28;19916;-79
2023/01/06 05:06:34;;;;;;;;;;;19.30;99.90;;;;;;5067590;28;19916;-76
2023/01/06 05:09:01;;;;;;;;;;;19.20;99.90;;;;;;5070489;28;19989;-75
2023/01/06 05:11:28;;;;;;;;;;;19.20;99.90;;;;;;5068016;28;20011;-75
2023/01/06 05:13:54;;;;;;;;;;;19.10;99.90;;;;;;5071629;28;19920;-75
2023/01/06 05:16:26;;;;;;;;;;;19.10;99.90;;;;;;5073601;28;19920;-75
2023/01/06 05:18:53;;;;;;;;;;;19.10;99.90;;;;;;5065428;27;19932;-76
2023/01/06 05:21:20;;;;;;;;;;;19.20;99.90;;;;;;5070899;28;19913;-77
2023/01/06 05:23:47;;;;;;;;;;;19.10;99.90;;;;;;5069209;28;19913;-78
2023/01/06 05:26:17;;;;;;;;;;;19.20;99.90;;;;;;5069945;28;19921;-77
2023/01/06 05:28:44;;;;;;;;;;;19.30;99.90;;;;;;5064604;28;19912;-75
2023/01/06 05:31:12;;;;;;;;;;;19.30;99.90;;;;;;5065123;28;19917;-76
2023/01/06 05:33:39;;;;;;;;;;;19.50;99.90;;;;;;5068777;28;19962;-82
2023/01/06 05:36:10;;;;;;;;;;;19.60;99.90;;;;;;5069766;28;19931;-75
2023/01/06 05:38:37;;;;;;;;;;;19.70;99.90;;;;;;5067448;28;19920;-73
2023/01/06 05:41:03;;;;;;;;;;;19.80;99.90;;;;;;5069832;28;19913;-77
2023/01/06 05:43:32;;;;;;;;;;;19.90;99.90;;;;;;5068518;28;19927;-78
2023/01/06 05:45:59;;;;;;;;;;;19.90;99.90;;;;;;5070554;28;19952;-77
2023/01/06 05:48:26;;;;;;;;;;;19.70;99.90;;;;;;5070262;28;19912;-72
2023/01/06 05:50:59;;;;;;;;;;;19.60;99.90;;;;;;5070892;28;20401;-77
2023/01/06 05:53:26;;;;;;;;;;;19.50;99.90;;;;;;5069035;28;20274;-77
2023/01/06 05:55:52;;;;;;;;;;;19.40;99.90;;;;;;5070212;28;19942;-74
2023/01/06 05:58:19;;;;;;;;;;;19.40;99.90;;;;;;5069184;28;20002;-77
2023/01/06 06:00:46;;;;;;;;;;;19.40;99.90;;;;;;5063524;28;19916;-78
2023/01/06 06:03:12;;;;;;;;;;;19.40;99.90;;;;;;5063981;28;19950;-72
2023/01/06 06:05:39;;;;;;;;;;;19.50;99.90;;;;;;5065413;28;19923;-74
2023/01/06 06:08:06;;;;;;;;;;;19.50;99.90;;;;;;5070021;28;19977;-77
2023/01/06 06:10:32;;;;;;;;;;;19.50;99.90;;;;;;5067522;28;19920;-75
2023/01/06 06:12:59;;;;;;;;;;;19.40;99.90;;;;;;5065518;28;19924;-79
2023/01/06 06:15:25;;;;;;;;;;;19.40;99.90;;;;;;5068338;28;19927;-72
2023/01/06 06:17:52;;;;;;;;;;;19.50;99.90;;;;;;5069338;28;20243;-74
2023/01/06 06:20:19;;;;;;;;;;;19.60;99.90;;;;;;5068777;28;20407;-76
2023/01/06 06:22:46;;;;;;;;;;;19.70;99.90;;;;;;5067703;28;19975;-74
2023/01/06 06:25:12;;;;;;;;;;;19.80;99.90;;;;;;5066596;28;19917;-78
2023/01/06 06:27:39;;;;;;;;;;;19.90;99.90;;;;;;5067805;28;19912;-69
2023/01/06 06:30:06;;;;;;;;;;;19.80;99.90;;;;;;5068053;28;19921;-78
2023/01/06 06:32:33;;;;;;;;;;;19.80;99.90;;;;;;5069217;28;20043;-72
2023/01/06 06:35:00;;;;;;;;;;;19.60;99.90;;;;;;5066642;28;19973;-74
2023/01/06 06:37:27;;;;;;;;;;;19.50;99.90;;;;;;5068588;28;19923;-74
2023/01/06 06:39:53;;;;;;;;;;;19.50;99.90;;;;;;5066496;28;20467;-77
2023/01/06 06:42:20;;;;;;;;;;;19.40;99.90;;;;;;5067785;28;19927;-73
2023/01/06 06:44:46;;;;;;;;;;;19.40;99.90;;;;;;5067351;28;19919;-78
2023/01/06 06:47:14;;;;;;;;;;;19.40;99.90;;;;;;5069442;28;19970;-77
2023/01/06 06:49:41;;;;;;;;;;;19.40;99.90;;;;;;5055647;28;20294;-72
2023/01/06 06:52:07;;;;;;;;;;;19.50;99.90;;;;;;5059981;28;19916;-77
2023/01/06 06:54:34;;;;;;;;;;;19.50;99.90;;;;;;5068958;28;19912;-77
2023/01/06 06:57:05;;;;;;;;;;;19.50;99.90;;;;;;5069084;28;20292;-80
2023/01/06 06:59:32;;;;;;;;;;;19.50;99.90;;;;;;5065815;28;20340;-78
2023/01/06 07:01:58;;;;;;;;;;;19.50;99.90;;;;;;5068899;28;19924;-71
2023/01/06 07:04:25;;;;;;;;;;;19.50;99.90;;;;;;5067724;28;19916;-74
2023/01/06 07:06:52;;;;;;;;;;;19.50;99.90;;;;;;5069462;28;19916;-81
2023/01/06 07:09:23;;;;;;;;;;;19.50;99.90;;;;;;5068291;28;19935;-76
2023/01/06 07:11:49;;;;;;;;;;;19.40;99.90;;;;;;5072189;28;20282;-77
2023/01/06 07:14:16;;;;;;;;;;;19.40;99.90;;;;;;5064459;28;19938;-75
2023/01/06 07:16:42;;;;;;;;;;;19.40;99.90;;;;;;5066214;28;19916;-73
2023/01/06 07:19:09;;;;;;;;;;;19.50;99.90;;;;;;5067463;28;20320;-78
2023/01/06 07:21:37;;;;;;;;;;;19.40;99.90;;;;;;5065083;28;19974;-71
2023/01/06 07:24:03;;;;;;;;;;;19.50;99.90;;;;;;5063027;28;20336;-79
2023/01/06 07:26:30;;;;;;;;;;;19.50;99.90;;;;;;5063027;28;20387;-76
2023/01/06 07:28:57;;;;;;;;;;;19.50;99.90;;;;;;5063312;28;19912;-75
2023/01/06 07:31:23;;;;;;;;;;;19.50;99.90;;;;;;5060508;28;19981;-79
2023/01/06 07:33:50;;;;;;;;;;;19.50;99.90;;;;;;5066325;28;19916;-78
2023/01/06 07:36:17;;;;;;;;;;;19.50;99.90;;;;;;5070815;28;19963;-76
2023/01/06 07:38:43;;;;;;;;;;;19.50;99.90;;;;;;5067744;28;19920;-75
2023/01/06 07:41:10;;;;;;;;;;;19.50;99.90;;;;;;5067294;28;20382;-77
2023/01/06 07:43:36;;;;;;;;;;;19.50;99.90;;;;;;5068568;28;19924;-77
2023/01/06 07:46:03;;;;;;;;;;;19.40;99.90;;;;;;5068086;28;19962;-75
2023/01/06 07:48:30;;;;;;;;;;;19.40;99.90;;;;;;5068647;28;20007;-80
2023/01/06 07:50:57;;;;;;;;;;;19.40;99.90;;;;;;5060902;28;20352;-76
2023/01/06 07:53:27;;;;;;;;;;;19.40;99.90;;;;;;5072160;28;20325;-77
2023/01/06 07:55:54;;;;;;;;;;;19.30;99.90;;;;;;5063529;28;19920;-74
2023/01/06 07:58:22;;;;;;;;;;;19.30;99.90;;;;;;5066036;28;19912;-76
2023/01/06 08:00:49;;;;;;;;;;;19.20;99.90;;;;;;5059814;28;19919;-73
2023/01/06 08:03:16;;;;;;;;;;;19.20;99.90;;;;;;5063519;28;20355;-76
2023/01/06 08:05:43;;;;;;;;;;;19.20;99.90;;;;;;5059419;28;19935;-74
2023/01/06 08:08:10;;;;;;;;;;;19.10;99.90;;;;;;5060763;28;19913;-75
2023/01/06 08:10:42;;;;;;;;;;;19.10;99.90;;;;;;5067080;28;19990;-73
2023/01/06 08:13:09;;;;;;;;;;;19.00;99.90;;;;;;5066157;28;19913;-75
2023/01/06 08:15:36;;;;;;;;;;;19.00;99.90;;;;;;5065845;28;19928;-74
2023/01/06 08:18:03;;;;;;;;;;;19.00;99.90;;;;;;5063506;28;19994;-74
2023/01/06 08:20:30;;;;;;;;;;;18.90;99.90;;;;;;5053824;28;19916;-76
2023/01/06 08:23:00;;;;;;;;;;;18.90;99.90;;;;;;5057410;28;20223;-71
2023/01/06 08:25:26;;;;;;;;;;;18.90;99.90;;;;;;5067254;28;19912;-76
2023/01/06 08:27:53;;;;;;;;;;;18.90;99.90;;;;;;5062512;28;19916;-74
2023/01/06 08:30:20;;;;;;;;;;;18.90;99.90;;;;;;5063560;28;19921;-76
2023/01/06 08:32:47;;;;;;;;;;;18.80;99.90;;;;;;5066405;28;20378;-75
2023/01/06 08:35:14;;;;;;;;;;;18.90;99.90;;;;;;5067930;28;20485;-73
2023/01/06 08:37:41;;;;;;;;;;;18.90;99.90;;;;;;5068836;28;19913;-76
2023/01/06 08:40:08;;;;;;;;;;;18.90;99.90;;;;;;5054231;28;19958;-76
2023/01/06 08:42:34;;;;;;;;;;;18.80;99.90;;;;;;5061870;28;19989;-74
2023/01/06 08:45:01;;;;;;;;;;;18.80;99.90;;;;;;5060873;28;19920;-72
2023/01/06 08:47:27;;;;;;;;;;;18.70;99.90;;;;;;5066040;28;19912;-76
2023/01/06 08:49:54;;;;;;;;;;;18.80;99.90;;;;;;5064334;28;19917;-75
2023/01/06 08:52:21;;;;;;;;;;;18.70;99.90;;;;;;5061385;28;19921;-74
2023/01/06 08:54:48;;;;;;;;;;;18.70;99.90;;;;;;5063615;28;19916;-78
2023/01/06 08:57:15;;;;;;;;;;;18.60;99.90;;;;;;5069556;28;20019;-79
2023/01/06 08:59:41;;;;;;;;;;;18.60;99.90;;;;;;5068943;28;19921;-79
2023/01/06 09:02:11;;;;;;;;;;;18.60;99.90;;;;;;5071926;28;19921;-79
2023/01/06 09:04:38;;;;;;;;;;;18.60;99.90;;;;;;5055939;28;20393;-78
2023/01/06 09:07:04;;;;;;;;;;;18.60;99.90;;;;;;5063794;28;19912;-78
2023/01/06 09:09:31;;;;;;;;;;;18.60;99.90;;;;;;5061844;28;20378;-76
2023/01/06 09:11:58;;;;;;;;;;;18.50;99.90;;;;;;5069012;28;19997;-75
2023/01/06 09:14:25;;;;;;;;;;;18.50;99.90;;;;;;5057252;28;19912;-77
2023/01/06 09:16:52;;;;;;;;;;;18.60;99.90;;;;;;5069874;28;19996;-76
2023/01/06 09:19:19;;;;;;;;;;;18.50;99.90;;;;;;5071743;28;20301;-76
2023/01/06 09:21:46;;;;;;;;;;;18.50;99.90;;;;;;5071158;28;20286;-76
2023/01/06 09:24:13;;;;;;;;;;;18.50;99.90;;;;;;5069492;28;20369;-74
2023/01/06 09:26:40;;;;;;;;;;;18.50;99.90;;;;;;5065355;28;19952;-75
2023/01/06 09:29:07;;;;;;;;;;;18.50;99.90;;;;;;5056726;28;20383;-73
2023/01/06 09:31:33;;;;;;;;;;;18.50;99.90;;;;;;5068624;28;19977;-73
2023/01/06 09:34:00;;;;;;;;;;;18.50;99.90;;;;;;5069371;28;19921;-75
2023/01/06 09:36:27;;;;;;;;;;;18.50;99.90;;;;;;5071286;28;19924;-74
2023/01/06 09:38:53;;;;;;;;;;;18.50;99.90;;;;;;5069169;28;20443;-74
2023/01/06 09:41:31;;;;;;;;;;;18.50;99.90;;;;;;5072651;28;20252;-78
2023/01/06 09:44:28;;;;;;;;;;;18.40;99.90;;;;;;5070231;28;19916;-76
2023/01/06 09:46:56;;;;;;;;;;;18.40;99.90;;;;;;5066704;28;19912;-76
2023/01/06 09:49:39;;;;;;;;;;;18.40;99.90;;;;;;5067862;28;19927;-76
2023/01/06 09:52:17;;;;;;;;;;;18.40;99.90;;;;;;5071599;28;19920;-74
2023/01/06 09:54:50;;;;;;;;;;;18.40;99.90;;;;;;5074123;28;19940;-74
2023/01/06 09:57:20;;;;;;;;;;;18.40;99.90;;;;;;5060264;28;19932;-78
2023/01/06 10:00:04;;;;;;;;;;;18.40;99.90;;;;;;5066933;28;19947;-75
2023/01/06 10:02:31;;;;;;;;;;;18.40;99.90;;;;;;5071147;28;20256;-76
2023/01/06 10:04:57;;;;;;;;;;;18.40;99.90;;;;;;5070007;28;19920;-74
2023/01/06 10:07:33;;;;;;;;;;;18.40;99.90;;;;;;5072222;28;19921;-75
2023/01/06 10:10:12;;;;;;;;;;;18.40;99.90;;;;;;5068101;28;19970;-76
2023/01/06 10:12:54;;;;;;;;;;;18.40;99.90;;;;;;5068884;28;19916;-78
2023/01/06 10:15:26;;;;;;;;;;;18.40;99.90;;;;;;5063067;28;19912;-77
2023/01/06 10:17:59;;;;;;;;;;;18.40;99.90;;;;;;5068047;28;20466;-74
2023/01/06 10:20:41;;;;;;;;;;;18.30;99.90;;;;;;5067985;28;19916;-76
2023/01/06 10:23:26;;;;;;;;;;;18.40;99.90;;;;;;5056085;28;20247;-76
2023/01/06 10:25:54;;;;;;;;;;;18.30;99.90;;;;;;5070703;28;19920;-74
2023/01/06 10:28:34;;;;;;;;;;;18.30;99.90;;;;;;5066557;28;19916;-72
2023/01/06 10:31:04;;;;;;;;;;;18.30;99.90;;;;;;5055313;28;20028;-76
2023/01/06 10:33:42;;;;;;;;;;;18.30;99.90;;;;;;5068230;28;20354;-75
2023/01/06 10:36:13;;;;;;;;;;;18.30;99.90;;;;;;5071370;28;20015;-75
2023/01/06 10:38:41;;;;;;;;;;;18.30;99.90;;;;;;5065165;28;19928;-74
2023/01/06 10:41:23;;;;;;;;;;;18.30;99.90;;;;;;5065327;28;19912;-76
2023/01/06 10:43:50;;;;;;;;;;;18.20;99.90;;;;;;5066065;28;19974;-76
2023/01/06 10:46:17;;;;;;;;;;;18.20;99.90;;;;;;5070184;28;20012;-76
2023/01/06 10:48:45;;;;;;;;;;;18.20;99.90;;;;;;5065628;28;19919;-76
2023/01/06 10:51:18;;;;;;;;;;;18.20;99.90;;;;;;5067340;28;19916;-76
2023/01/06 10:53:44;;;;;;;;;;;18.30;99.90;;;;;;5077297;28;19922;-76
2023/01/06 10:56:11;;;;;;;;;;;18.20;99.90;;;;;;5072421;28;20426;-77
2023/01/06 10:58:41;;;;;;;;;;;18.20;99.90;;;;;;5068768;28;19995;-77
2023/01/06 11:01:09;;;;;;;;;;;18.20;99.90;;;;;;5067604;28;19958;-74
2023/01/06 11:03:36;;;;;;;;;;;18.10;99.90;;;;;;5069303;28;19921;-77
2023/01/06 11:06:07;;;;;;;;;;;18.10;99.90;;;;;;5060832;28;19921;-79
2023/01/06 11:08:35;;;;;;;;;;;18.00;99.90;;;;;;5069607;28;19919;-73
2023/01/06 11:11:02;;;;;;;;;;;18.00;99.90;;;;;;5069021;28;19916;-80
2023/01/06 11:13:31;;;;;;;;;;;17.90;99.90;;;;;;5064147;28;19913;-77
2023/01/06 11:16:16;;;;;;;;;;;17.90;99.90;;;;;;5059788;28;19955;-77
2023/01/06 11:18:43;;;;;;;;;;;17.90;99.90;;;;;;5068843;28;19923;-78
2023/01/06 11:21:11;;;;;;;;;;;17.90;99.90;;;;;;5067366;28;20018;-78
2023/01/06 11:23:39;;;;;;;;;;;17.90;99.90;;;;;;5061319;28;19925;-77
2023/01/06 11:26:12;;;;;;;;;;;18.00;99.90;;;;;;5069029;28;19923;-75
2023/01/06 11:28:39;;;;;;;;;;;17.90;99.90;;;;;;5063972;28;19916;-77
2023/01/06 11:31:06;;;;;;;;;;;18.00;99.90;;;;;;5066326;28;20431;-76
2023/01/06 11:33:33;;;;;;;;;;;18.00;99.90;;;;;;5054488;28;19916;-76
2023/01/06 11:36:10;;;;;;;;;;;18.00;99.90;;;;;;5067961;28;20432;-81
2023/01/06 11:38:57;;;;;;;;;;;18.00;99.90;;;;;;5057901;28;19927;-77
2023/01/06 11:41:28;;;;;;;;;;;18.00;99.90;;;;;;5065323;28;19916;-78
2023/01/06 11:43:56;;;;;;;;;;;18.00;99.90;;;;;;5065202;28;20010;-80
2023/01/06 11:46:24;;;;;;;;;;;18.00;99.90;;;;;;5070954;28;19966;-80
2023/01/06 11:49:00;;;;;;;;;;;18.00;99.90;;;;;;5069005;28;19913;-77
2023/01/06 11:51:31;;;;;;;;;;;18.00;99.90;;;;;;5068800;28;19913;-79
2023/01/06 11:54:00;;;;;;;;;;;18.00;99.90;;;;;;5070130;28;19913;-78
2023/01/06 11:56:26;;;;;;;;;;;18.00;99.90;;;;;;5060335;28;19916;-79
2023/01/06 11:58:59;;;;;;;;;;;18.00;99.90;;;;;;5058669;28;19913;-74
2023/01/06 12:01:29;;;;;;;;;;;18.00;99.90;;;;;;5067010;28;19983;-76
2023/01/06 12:04:04;;;;;;;;;;;18.00;99.90;;;;;;5065532;28;19924;-77
2023/01/06 12:06:35;;;;;;;;;;;18.00;99.90;;;;;;5070436;28;19916;-79
2023/01/06 12:09:12;;;;;;;;;;;18.00;99.90;;;;;;5061507;28;19927;-78
2023/01/06 12:11:39;;;;;;;;;;;18.00;99.90;;;;;;5054635;28;19920;-82
2023/01/06 12:14:12;;;;;;;;;;;18.00;99.90;;;;;;5068026;28;20325;-79
2023/01/06 12:16:40;;;;;;;;;;;18.00;99.90;;;;;;5074175;28;19942;-74
2023/01/06 12:19:13;;;;;;;;;;;18.00;99.90;;;;;;5073421;28;20402;-79
2023/01/06 12:21:41;;;;;;;;;;;18.00;99.90;;;;;;5069524;28;19912;-78
2023/01/06 12:24:11;;;;;;;;;;;18.00;99.90;;;;;;5069426;28;19913;-81
2023/01/06 12:26:39;;;;;;;;;;;17.90;99.90;;;;;;5062785;28;20371;-78
2023/01/06 12:29:06;;;;;;;;;;;17.90;99.90;;;;;;5073207;28;19956;-81
2023/01/06 12:31:33;;;;;;;;;;;17.90;99.90;;;;;;5071776;28;19955;-78
2023/01/06 12:34:12;;;;;;;;;;;17.80;99.90;;;;;;5065604;28;20016;-77
2023/01/06 12:36:45;;;;;;;;;;;17.80;99.90;;;;;;5060283;28;19966;-80
2023/01/06 12:39:16;;;;;;;;;;;17.70;99.90;;;;;;5067420;28;19929;-76
2023/01/06 12:41:57;;;;;;;;;;;17.70;99.90;;;;;;5065365;28;19913;-79
2023/01/06 12:44:29;;;;;;;;;;;17.60;99.90;;;;;;5072647;28;19967;-81
2023/01/06 12:47:14;;;;;;;;;;;17.60;99.90;;;;;;5067991;28;19940;-80
2023/01/06 12:49:52;;;;;;;;;;;17.60;99.90;;;;;;5065888;28;19924;-78
2023/01/06 12:52:22;;;;;;;;;;;17.60;99.90;;;;;;5069651;28;19916;-78
2023/01/06 12:54:58;;;;;;;;;;;17.50;99.90;;;;;;5074988;28;20023;-78
2023/01/06 12:57:34;;;;;;;;;;;17.50;99.90;;;;;;5069946;28;19912;-77
2023/01/06 13:00:10;;;;;;;;;;;17.50;99.90;;;;;;5071232;28;19916;-83
2023/01/06 13:02:43;;;;;;;;;;;17.50;99.90;;;;;;5065961;28;20014;-76
2023/01/06 13:05:32;;;;;;;;;;;17.50;99.90;;;;;;5067005;28;19909;-83
2023/01/06 13:08:05;;;;;;;;;;;17.50;99.90;;;;;;5067181;28;19917;-73
2023/01/06 13:10:38;;;;;;;;;;;17.60;99.90;;;;;;5064645;28;20043;-80
2023/01/06 13:13:16;;;;;;;;;;;17.60;99.90;;;;;;5066494;28;20362;-82
2023/01/06 13:15:45;;;;;;;;;;;17.50;99.90;;;;;;5075642;28;20407;-80
2023/01/06 13:18:27;;;;;;;;;;;17.50;99.90;;;;;;5085407;28;19934;-80
2023/01/06 13:21:08;;;;;;;;;;;17.60;99.90;;;;;;5080017;28;20308;-74
2023/01/06 13:23:50;;;;;;;;;;;17.50;99.90;;;;;;5072395;28;19924;-76
2023/01/06 13:26:28;;;;;;;;;;;17.50;99.90;;;;;;5080121;28;19919;-76
2023/01/06 13:29:07;;;;;;;;;;;17.50;99.90;;;;;;5074008;28;19920;-75
2023/01/06 13:31:40;;;;;;;;;;;17.50;99.90;;;;;;5071834;28;19909;-77
2023/01/06 13:34:24;;;;;;;;;;;17.50;99.90;;;;;;5059922;28;19920;-75
2023/01/06 13:37:06;;;;;;;;;;;17.50;99.90;;;;;;5073317;28;19962;-74
2023/01/06 13:39:34;;;;;;;;;;;17.50;99.90;;;;;;5067242;28;19932;-76
2023/01/06 13:42:02;;;;;;;;;;;17.60;99.90;;;;;;5070547;28;20030;-74
2023/01/06 13:44:31;;;;;;;;;;;17.60;99.90;;;;;;5070393;28;19916;-72
2023/01/06 13:47:20;;;;;;;;;;;17.60;99.90;;;;;;5072518;28;20007;-77
2023/01/06 13:49:47;;;;;;;;;;;17.60;99.90;;;;;;5056525;28;20351;-75
2023/01/06 13:52:16;;;;;;;;;;;17.60;99.90;;;;;;5069443;28;19956;-74
2023/01/06 13:54:43;;;;;;;;;;;17.60;99.90;;;;;;5073032;28;20371;-76
2023/01/06 13:57:29;;;;;;;;;;;17.60;99.90;;;;;;5067912;28;19920;-78
2023/01/06 14:00:05;;;;;;;;;;;17.60;99.90;;;;;;5068567;28;19920;-78
2023/01/06 14:02:35;;;;;;;;;;;17.60;99.90;;;;;;5068192;28;19928;-76
2023/01/06 14:05:02;;;;;;;;;;;17.60;99.90;;;;;;5068806;28;20011;-76
2023/01/06 14:07:36;;;;;;;;;;;17.60;99.90;;;;;;5071529;28;19966;-74
2023/01/06 14:10:25;;;;;;;;;;;17.60;99.90;;;;;;5069988;28;20275;-73
2023/01/06 14:12:52;;;;;;;;;;;17.60;99.90;;;;;;5062814;28;19920;-77
2023/01/06 14:15:32;;;;;;;;;;;17.60;99.90;;;;;;5070624;28;20271;-75
2023/01/06 14:18:03;;;;;;;;;;;17.60;99.90;;;;;;5070190;28;19912;-72
2023/01/06 14:20:34;;;;;;;;;;;17.60;99.90;;;;;;5058735;28;20406;-76
2023/01/06 14:23:04;;;;;;;;;;;17.60;99.90;;;;;;5069769;28;20028;-76
2023/01/06 14:25:38;;;;;;;;;;;17.60;99.90;;;;;;5069975;28;19916;-69
2023/01/06 14:28:06;;;;;;;;;;;17.60;99.90;;;;;;5068584;28;20374;-77
2023/01/06 14:30:34;;;;;;;;;;;17.60;99.90;;;;;;5064959;28;20317;-74
2023/01/06 14:33:03;;;;;;;;;;;17.60;99.90;;;;;;5069355;28;19948;-75
2023/01/06 14:35:42;;;;;;;;;;;17.60;99.90;;;;;;5071746;28;19963;-75